Time;durP1;ratioP1;P1;durP2;ratioP2;P2;SDS_P1;SDS_P2;PMS_P1;PMS_P2;Temp;Humidity;BMP_temperature;BMP_pressure;BME280_temperature;BME280_humidity;BME280_pressure;Samples;Min_cycle;Max_cycle;Signal;HPM_P1;HPM_P2
2022/05/04 00:00:37;;;;;;;0.40;0.40;;;22.20;55.30;;;;;;5113602;28;20035;-46
2022/05/04 00:03:03;;;;;;;0.47;0.43;;;22.20;55.00;;;;;;5113494;28;20020;-50
2022/05/04 00:05:31;;;;;;;1.42;0.60;;;22.20;54.70;;;;;;5110521;28;20056;-47
2022/05/04 00:07:57;;;;;;;0.55;0.40;;;22.20;54.60;;;;;;5114849;28;20032;-45
2022/05/04 00:10:24;;;;;;;0.63;0.50;;;22.20;54.50;;;;;;5109287;28;20044;-45
2022/05/04 00:12:50;;;;;;;0.43;0.40;;;22.10;54.20;;;;;;5099904;28;20024;-45
2022/05/04 00:15:16;;;;;;;0.95;0.50;;;22.20;54.50;;;;;;5109300;28;20105;-47
2022/05/04 00:17:42;;;;;;;1.10;0.57;;;22.20;54.80;;;;;;5118373;28;20028;-45
2022/05/04 00:20:09;;;;;;;1.00;0.50;;;22.20;54.90;;;;;;5108891;28;20107;-46
2022/05/04 00:22:35;;;;;;;0.95;0.40;;;22.20;54.90;;;;;;5101505;28;20035;-48
2022/05/04 00:25:02;;;;;;;0.82;0.50;;;22.10;54.30;;;;;;5104498;28;20024;-45
2022/05/04 00:27:28;;;;;;;0.90;0.40;;;22.10;54.20;;;;;;5104062;28;20032;-46
2022/05/04 00:29:54;;;;;;;1.13;0.47;;;22.10;54.00;;;;;;5108144;28;20028;-48
2022/05/04 00:32:21;;;;;;;0.85;0.50;;;22.10;54.30;;;;;;5107511;28;20090;-45
2022/05/04 00:34:47;;;;;;;1.70;0.40;;;22.10;54.50;;;;;;5104037;28;20038;-46
2022/05/04 00:37:14;;;;;;;0.43;0.40;;;22.20;54.60;;;;;;5103812;28;20096;-45
2022/05/04 00:39:40;;;;;;;0.55;0.55;;;22.10;54.60;;;;;;5105273;28;20058;-46
2022/05/04 00:42:13;;;;;;;1.30;0.50;;;22.20;54.70;;;;;;5103541;28;20111;-45
2022/05/04 00:44:40;;;;;;;0.65;0.40;;;22.20;54.60;;;;;;5101482;28;20039;-45
2022/05/04 00:47:07;;;;;;;2.85;0.75;;;22.10;54.30;;;;;;5106032;28;20028;-47
2022/05/04 00:49:33;;;;;;;2.05;0.40;;;22.10;54.20;;;;;;5106875;28;20030;-49
2022/05/04 00:52:00;;;;;;;0.40;0.40;;;22.10;54.10;;;;;;5110358;28;20070;-46
2022/05/04 00:54:26;;;;;;;0.38;0.35;;;22.10;54.20;;;;;;5096720;28;20025;-49
2022/05/04 00:56:52;;;;;;;0.47;0.40;;;22.10;54.20;;;;;;5085331;28;20039;-46
2022/05/04 00:59:20;;;;;;;0.80;0.40;;;22.10;54.20;;;;;;5102759;28;20028;-47
2022/05/04 01:01:46;;;;;;;1.65;0.40;;;22.10;54.20;;;;;;5094796;28;20032;-46
2022/05/04 01:04:12;;;;;;;1.02;0.45;;;22.20;54.20;;;;;;5095332;28;20643;-46
2022/05/04 01:06:39;;;;;;;0.38;0.30;;;22.10;54.10;;;;;;5106404;28;20043;-46
2022/05/04 01:09:06;;;;;;;1.58;0.55;;;22.10;54.00;;;;;;5105172;28;20058;-46
2022/05/04 01:11:32;;;;;;;1.33;0.45;;;22.20;54.10;;;;;;5110115;28;20044;-45
2022/05/04 01:14:05;;;;;;;0.65;0.57;;;22.10;53.90;;;;;;5108789;28;20496;-47
2022/05/04 01:16:32;;;;;;;1.10;0.40;;;22.10;53.90;;;;;;5108755;28;20028;-46
2022/05/04 01:18:58;;;;;;;1.27;0.43;;;22.20;53.90;;;;;;5110394;28;20027;-47
2022/05/04 01:21:24;;;;;;;0.65;0.47;;;22.20;53.80;;;;;;5109675;28;20422;-47
2022/05/04 01:23:50;;;;;;;0.60;0.40;;;22.20;53.80;;;;;;5106364;28;20027;-46
2022/05/04 01:26:17;;;;;;;0.50;0.50;;;22.20;53.70;;;;;;5088239;28;20103;-47
2022/05/04 01:28:44;;;;;;;2.15;0.50;;;22.20;53.70;;;;;;5107296;28;20084;-46
2022/05/04 01:31:10;;;;;;;0.90;0.40;;;22.20;53.60;;;;;;5110556;28;20078;-45
2022/05/04 01:33:36;;;;;;;0.93;0.43;;;22.20;53.50;;;;;;5110325;28;20031;-45
2022/05/04 01:36:04;;;;;;;2.15;0.50;;;22.20;53.50;;;;;;5103608;28;20031;-46
2022/05/04 01:38:30;;;;;;;1.50;0.50;;;22.20;53.50;;;;;;5089692;28;20087;-45
2022/05/04 01:40:56;;;;;;;1.08;0.57;;;22.20;53.40;;;;;;5109201;28;20064;-49
2022/05/04 01:43:22;;;;;;;0.75;0.50;;;22.20;53.30;;;;;;5104421;28;20063;-48
2022/05/04 01:45:49;;;;;;;1.75;0.50;;;22.20;53.30;;;;;;5108664;28;20083;-45
2022/05/04 01:48:15;;;;;;;0.77;0.45;;;22.20;53.30;;;;;;5111701;28;20028;-45
2022/05/04 01:50:41;;;;;;;0.57;0.50;;;22.30;53.30;;;;;;5111364;28;20034;-46
2022/05/04 01:53:07;;;;;;;0.52;0.40;;;22.30;53.30;;;;;;5107889;28;20028;-45
2022/05/04 01:55:35;;;;;;;1.45;0.55;;;22.30;53.20;;;;;;5108271;28;20040;-47
2022/05/04 01:58:04;;;;;;;1.17;0.50;;;22.30;53.20;;;;;;5105945;28;20040;-46
2022/05/04 02:00:31;;;;;;;1.25;0.43;;;22.30;53.20;;;;;;5108245;28;20598;-45
2022/05/04 02:02:58;;;;;;;1.30;0.70;;;22.30;53.20;;;;;;5106066;28;20033;-50
2022/05/04 02:05:24;;;;;;;0.38;0.32;;;22.30;53.10;;;;;;5095003;28;20054;-46
2022/05/04 02:07:50;;;;;;;1.37;0.60;;;22.30;53.10;;;;;;5066343;28;20036;-47
2022/05/04 02:10:16;;;;;;;1.05;0.60;;;22.30;53.10;;;;;;5104836;28;20036;-47
2022/05/04 02:12:43;;;;;;;1.95;0.82;;;22.30;53.10;;;;;;5104119;28;20135;-46
2022/05/04 02:15:11;;;;;;;1.00;0.60;;;22.30;53.00;;;;;;5104201;28;20056;-47
2022/05/04 02:17:38;;;;;;;1.77;0.77;;;22.30;53.00;;;;;;5104301;28;20067;-48
2022/05/04 02:20:04;;;;;;;1.33;0.57;;;22.40;53.10;;;;;;5105308;28;20122;-47
2022/05/04 02:22:31;;;;;;;0.93;0.57;;;22.30;53.00;;;;;;5104624;28;20027;-49
2022/05/04 02:24:57;;;;;;;1.33;0.50;;;22.40;53.00;;;;;;5103091;28;20040;-47
2022/05/04 02:27:23;;;;;;;1.23;0.60;;;22.40;53.00;;;;;;5101931;28;20016;-46
2022/05/04 02:29:49;;;;;;;1.33;0.57;;;22.40;52.90;;;;;;5107562;28;20795;-47
2022/05/04 02:32:15;;;;;;;1.13;0.50;;;22.40;52.90;;;;;;5102707;28;20040;-47
2022/05/04 02:40:12;;;;;;;0.88;0.50;;;22.40;53.00;;;;;;5096096;28;20039;-48
2022/05/04 02:42:38;;;;;;;2.10;0.80;;;22.40;53.00;;;;;;5079594;28;20033;-47
2022/05/04 02:45:05;;;;;;;1.95;0.75;;;22.40;52.90;;;;;;5100330;28;20036;-60
2022/05/04 02:47:32;;;;;;;1.95;0.63;;;22.40;53.80;;;;;;5102732;28;20059;-63
2022/05/04 02:49:58;;;;;;;1.70;0.80;;;22.40;53.30;;;;;;5105512;28;20689;-61
2022/05/04 02:52:24;;;;;;;1.75;0.88;;;22.40;53.40;;;;;;5102158;28;20032;-63
2022/05/04 02:54:50;;;;;;;1.10;0.50;;;22.40;53.40;;;;;;5108621;28;20043;-63
2022/05/04 02:57:16;;;;;;;1.63;0.80;;;22.40;53.40;;;;;;5097204;28;20119;-58
2022/05/04 02:59:42;;;;;;;2.10;1.13;;;22.40;53.60;;;;;;5110784;28;20559;-53
2022/05/04 03:02:27;;;;;;;2.53;0.88;;;22.40;53.60;;;;;;5116437;28;20028;-50
2022/05/04 03:04:54;;;;;;;4.20;1.23;;;22.40;53.90;;;;;;5109074;28;20046;-57
2022/05/04 03:07:21;;;;;;;2.97;0.68;;;22.40;54.10;;;;;;5105878;28;20024;-52
2022/05/04 03:09:47;;;;;;;4.33;0.80;;;22.40;54.20;;;;;;5103465;28;20039;-56
2022/05/04 03:12:13;;;;;;;1.85;0.80;;;22.50;54.30;;;;;;5109179;28;21067;-55
2022/05/04 03:14:39;;;;;;;2.60;0.70;;;22.50;54.30;;;;;;5108968;28;20024;-51
2022/05/04 03:17:05;;;;;;;1.88;0.85;;;22.50;54.30;;;;;;5106575;28;20028;-55
2022/05/04 03:19:31;;;;;;;1.63;0.50;;;22.50;54.30;;;;;;5101412;28;20024;-54
2022/05/04 03:21:58;;;;;;;1.55;0.70;;;22.50;54.30;;;;;;5104391;28;20032;-53
2022/05/04 03:24:24;;;;;;;0.80;0.63;;;22.50;54.30;;;;;;5108466;28;20024;-57
2022/05/04 03:26:50;;;;;;;1.85;0.95;;;22.50;54.30;;;;;;5105423;28;20024;-52
2022/05/04 03:29:16;;;;;;;2.25;0.70;;;22.50;54.30;;;;;;5103213;28;20028;-52
2022/05/04 03:31:42;;;;;;;1.88;0.63;;;22.50;54.30;;;;;;5099511;28;20035;-56
2022/05/04 03:34:08;;;;;;;2.67;0.80;;;22.50;54.30;;;;;;5108565;28;20031;-51
2022/05/04 03:36:37;;;;;;;2.17;0.60;;;22.50;54.30;;;;;;5109482;28;20053;-55
2022/05/04 03:39:04;;;;;;;1.65;0.60;;;22.50;54.40;;;;;;5106949;28;20020;-50
2022/05/04 03:41:31;;;;;;;1.55;0.70;;;22.50;54.30;;;;;;5104363;28;20849;-50
2022/05/04 03:43:57;;;;;;;1.33;0.70;;;22.50;54.40;;;;;;5108751;28;20047;-55
2022/05/04 03:46:26;;;;;;;3.20;0.73;;;22.50;54.40;;;;;;5107428;28;20546;-54
2022/05/04 03:48:53;;;;;;;1.33;0.60;;;22.50;54.40;;;;;;5108983;28;20038;-56
2022/05/04 03:51:20;;;;;;;1.65;0.88;;;22.50;54.40;;;;;;5108778;28;20118;-53
2022/05/04 03:53:47;;;;;;;1.33;0.60;;;22.50;54.40;;;;;;5111818;28;20472;-55
2022/05/04 03:56:13;;;;;;;0.77;0.57;;;22.50;54.50;;;;;;5104009;28;20039;-54
2022/05/04 03:58:39;;;;;;;1.15;0.50;;;22.60;54.60;;;;;;5103313;28;20036;-54
2022/05/04 04:01:05;;;;;;;1.38;0.63;;;22.60;54.70;;;;;;5104770;28;20513;-53
2022/05/04 04:03:32;;;;;;;2.85;0.88;;;22.60;54.80;;;;;;5084016;28;20092;-53
2022/05/04 04:05:58;;;;;;;2.33;0.70;;;22.60;54.80;;;;;;5098919;28;20052;-54
2022/05/04 04:08:24;;;;;;;2.42;0.80;;;22.60;54.80;;;;;;5108742;28;20027;-55
2022/05/04 04:10:50;;;;;;;0.65;0.60;;;22.60;54.80;;;;;;5103505;28;20031;-52
2022/05/04 04:13:16;;;;;;;1.27;0.82;;;22.60;54.90;;;;;;5105694;28;20024;-53
2022/05/04 04:15:43;;;;;;;0.65;0.65;;;22.60;54.90;;;;;;5102834;28;20027;-52
2022/05/04 04:18:09;;;;;;;1.45;0.52;;;22.60;55.00;;;;;;5106485;28;20057;-51
2022/05/04 04:23:21;;;;;;;1.35;0.55;;;22.60;55.00;;;;;;5102895;28;20050;-48
2022/05/04 04:25:47;;;;;;;0.75;0.47;;;22.60;55.00;;;;;;5103930;28;20078;-50
2022/05/04 04:28:13;;;;;;;1.60;0.60;;;22.60;55.10;;;;;;5087433;28;20020;-53
2022/05/04 04:30:39;;;;;;;1.05;0.55;;;22.60;55.10;;;;;;5105236;28;20035;-51
2022/05/04 04:33:08;;;;;;;1.75;0.55;;;22.60;55.10;;;;;;5111141;28;20028;-51
2022/05/04 04:35:34;;;;;;;1.10;0.65;;;22.60;55.20;;;;;;5106558;28;20020;-51
2022/05/04 04:38:01;;;;;;;0.57;0.50;;;22.60;55.20;;;;;;5103847;28;20100;-50
2022/05/04 04:40:27;;;;;;;1.25;0.68;;;22.60;55.20;;;;;;5108160;28;20063;-55
2022/05/04 04:42:53;;;;;;;1.10;0.63;;;22.60;55.20;;;;;;5110214;28;20078;-54
2022/05/04 04:45:20;;;;;;;0.90;0.70;;;22.60;55.20;;;;;;5109958;28;20038;-56
2022/05/04 04:47:46;;;;;;;1.00;0.70;;;22.60;55.20;;;;;;5106342;28;20754;-55
2022/05/04 04:50:13;;;;;;;1.10;0.60;;;22.60;55.20;;;;;;5107020;28;20036;-51
2022/05/04 04:52:40;;;;;;;1.75;0.60;;;22.70;55.30;;;;;;5108496;28;20028;-55
2022/05/04 04:55:06;;;;;;;0.83;0.50;;;22.60;55.30;;;;;;5102181;28;20035;-50
2022/05/04 04:57:36;;;;;;;2.58;0.60;;;22.70;55.30;;;;;;5102688;28;20115;-57
2022/05/04 05:00:04;;;;;;;1.15;0.68;;;22.70;55.30;;;;;;5111887;28;20559;-50
2022/05/04 05:02:30;;;;;;;1.15;0.60;;;22.70;55.30;;;;;;5110561;28;20104;-57
2022/05/04 05:04:56;;;;;;;1.23;0.80;;;22.70;55.30;;;;;;5105217;28;20052;-53
2022/05/04 05:07:22;;;;;;;1.63;0.70;;;22.70;55.30;;;;;;5105956;28;20028;-54
2022/05/04 05:09:49;;;;;;;1.40;0.60;;;22.60;55.30;;;;;;5104907;28;20095;-53
2022/05/04 05:12:16;;;;;;;;;;;22.70;55.30;;;;;;5109711;28;20514;-52
2022/05/04 05:17:28;;;;;;;0.70;0.50;;;22.70;55.30;;;;;;5106556;28;20041;-55
2022/05/04 05:19:54;;;;;;;1.00;0.60;;;22.70;55.20;;;;;;5114627;28;20103;-56
2022/05/04 05:22:20;;;;;;;1.00;0.60;;;22.70;55.20;;;;;;5108538;28;20024;-54
2022/05/04 05:24:46;;;;;;;1.90;0.50;;;22.70;55.30;;;;;;5112982;28;20023;-53
2022/05/04 05:27:14;;;;;;;0.90;0.50;;;22.70;55.20;;;;;;5109023;28;20031;-49
2022/05/04 05:29:39;;;;;;;;;;;22.70;55.20;;;;;;5103825;28;20040;-52
2022/05/04 05:32:06;;;;;;;0.60;0.57;;;22.70;55.20;;;;;;5106102;28;19986;-51
2022/05/04 05:34:33;;;;;;;1.15;0.68;;;22.70;55.20;;;;;;5108291;28;20464;-54
2022/05/04 05:37:00;;;;;;;0.65;0.50;;;22.70;55.10;;;;;;5104650;28;20047;-54
2022/05/04 05:39:27;;;;;;;1.05;0.80;;;22.70;55.10;;;;;;5115931;28;20034;-57
2022/05/04 05:41:53;;;;;;;0.70;0.63;;;22.70;55.10;;;;;;5109244;28;20036;-58
2022/05/04 05:44:19;;;;;;;0.95;0.75;;;22.70;55.10;;;;;;5110113;28;20058;-56
2022/05/04 05:46:45;;;;;;;1.05;0.70;;;22.70;55.10;;;;;;5108232;28;20019;-57
2022/05/04 05:49:11;;;;;;;0.95;0.65;;;22.70;55.20;;;;;;5103919;28;20070;-57
2022/05/04 05:51:37;;;;;;;0.85;0.73;;;22.70;55.20;;;;;;5103660;28;20092;-56
2022/05/04 05:54:03;;;;;;;2.00;0.70;;;22.70;55.20;;;;;;5107096;28;20436;-57
2022/05/04 05:56:29;;;;;;;0.90;0.60;;;22.70;55.20;;;;;;5108169;28;20039;-56
2022/05/04 05:58:56;;;;;;;1.08;0.80;;;22.70;55.20;;;;;;5111604;28;20111;-56
2022/05/04 06:01:22;;;;;;;1.55;0.70;;;22.70;55.20;;;;;;5100130;28;20040;-58
2022/05/04 06:03:52;;;;;;;2.08;0.80;;;22.70;55.20;;;;;;5108546;28;20519;-59
2022/05/04 06:06:19;;;;;;;1.02;0.70;;;22.70;55.20;;;;;;5105163;28;20052;-59
2022/05/04 06:08:45;;;;;;;1.17;0.70;;;22.70;55.20;;;;;;5104164;28;20039;-60
2022/05/04 06:11:11;;;;;;;1.02;0.60;;;22.70;55.20;;;;;;5105079;28;20063;-57
2022/05/04 06:13:37;;;;;;;1.48;0.93;;;22.70;55.20;;;;;;5114544;28;20019;-51
2022/05/04 06:16:04;;;;;;;1.10;1.00;;;22.70;55.70;;;;;;5102911;28;20603;-52
2022/05/04 06:18:30;;;;;;;1.63;1.10;;;22.70;55.20;;;;;;5104942;28;20027;-50
2022/05/04 06:20:58;;;;;;;1.92;0.93;;;22.70;55.20;;;;;;5122554;28;20028;-51
2022/05/04 06:23:24;;;;;;;1.17;0.85;;;22.70;55.20;;;;;;5094494;28;20039;-52
2022/05/04 06:25:50;;;;;;;1.35;0.80;;;22.70;55.20;;;;;;5116276;28;20042;-51
2022/05/04 06:28:16;;;;;;;1.50;0.93;;;22.70;55.20;;;;;;5082282;28;20100;-50
2022/05/04 06:36:11;;;;;;;1.17;0.90;;;22.70;55.20;;;;;;5088134;28;20498;-51
2022/05/04 06:38:37;;;;;;;2.42;0.95;;;22.70;55.20;;;;;;5101113;28;20020;-50
2022/05/04 06:41:05;;;;;;;1.65;1.08;;;22.70;55.30;;;;;;5082479;28;20035;-51
2022/05/04 06:43:32;;;;;;;;;;;22.70;55.30;;;;;;5083264;28;20028;-51
2022/05/04 06:45:58;;;;;;;2.00;1.25;;;22.70;55.30;;;;;;5121727;28;19918;-49
2022/05/04 06:48:25;;;;;;;1.00;0.90;;;22.70;55.30;;;;;;5106813;28;20092;-48
2022/05/04 06:50:51;;;;;;;2.27;1.27;;;22.70;55.30;;;;;;5088604;28;20099;-46
2022/05/04 06:53:17;;;;;;;1.30;1.00;;;22.70;55.30;;;;;;5096857;28;20048;-47
2022/05/04 06:55:43;;;;;;;1.67;1.30;;;22.70;55.30;;;;;;5116501;28;20035;-54
2022/05/04 06:58:09;;;;;;;2.08;1.30;;;22.70;55.40;;;;;;5089779;28;20031;-52
2022/05/04 07:00:35;;;;;;;1.42;1.20;;;22.70;55.40;;;;;;5092923;28;20032;-52
2022/05/04 07:03:01;;;;;;;1.80;1.13;;;22.70;55.40;;;;;;5093747;28;20028;-51
2022/05/04 07:05:28;;;;;;;1.40;1.08;;;22.70;55.40;;;;;;5104303;28;20044;-50
2022/05/04 07:07:54;;;;;;;1.55;1.23;;;22.70;55.40;;;;;;5098538;28;20785;-50
2022/05/04 07:10:20;;;;;;;1.60;1.10;;;22.70;55.40;;;;;;5105628;28;20042;-49
2022/05/04 07:12:46;;;;;;;3.25;1.48;;;22.70;55.40;;;;;;5101407;28;20055;-48
2022/05/04 07:15:12;;;;;;;1.75;1.45;;;22.70;55.50;;;;;;5097471;28;20098;-47
2022/05/04 07:17:38;;;;;;;2.10;1.27;;;22.70;55.50;;;;;;5102343;28;20030;-48
2022/05/04 07:20:05;;;;;;;1.95;1.33;;;22.70;55.50;;;;;;5103144;28;20060;-48
2022/05/04 07:22:31;;;;;;;1.73;1.33;;;22.70;55.50;;;;;;5103026;28;20036;-47
2022/05/04 07:24:57;;;;;;;2.30;1.27;;;22.70;55.60;;;;;;5098953;28;20024;-48
2022/05/04 07:27:23;;;;;;;2.90;1.70;;;22.70;55.60;;;;;;5097844;28;20035;-51
2022/05/04 07:29:49;;;;;;;2.80;1.50;;;22.70;55.60;;;;;;5108137;28;20051;-50
2022/05/04 07:32:15;;;;;;;2.25;1.60;;;22.70;55.60;;;;;;5103562;28;20810;-48
2022/05/04 07:34:42;;;;;;;1.58;1.40;;;22.70;55.60;;;;;;5101954;28;20046;-53
2022/05/04 07:37:08;;;;;;;2.15;1.27;;;22.70;55.60;;;;;;5108100;28;20609;-52
2022/05/04 07:42:24;;;;;;;3.85;1.40;;;22.70;55.70;;;;;;5105143;28;20093;-53
2022/05/04 07:44:51;;;;;;;2.38;1.80;;;22.70;55.70;;;;;;5084874;28;20050;-56
2022/05/04 07:47:18;;;;;;;2.15;1.45;;;22.70;55.70;;;;;;5106036;28;20028;-59
2022/05/04 07:49:45;;;;;;;2.63;1.65;;;22.70;55.70;;;;;;5102508;28;20028;-59
2022/05/04 07:52:11;;;;;;;2.05;1.63;;;22.60;55.70;;;;;;5106758;28;20024;-59
2022/05/04 07:54:37;;;;;;;2.83;1.67;;;22.70;55.80;;;;;;5085906;28;20100;-59
2022/05/04 07:57:03;;;;;;;2.35;1.80;;;22.60;55.80;;;;;;5105792;28;20032;-59
2022/05/04 07:59:29;;;;;;;1.92;1.70;;;22.60;55.80;;;;;;5105286;28;20055;-59
2022/05/04 08:04:40;;;;;;;3.40;1.85;;;22.60;55.90;;;;;;5102557;28;20059;-57
2022/05/04 08:07:06;;;;;;;3.53;1.92;;;22.60;55.90;;;;;;5107266;28;20023;-59
2022/05/04 08:09:36;;;;;;;3.55;1.92;;;22.60;56.00;;;;;;5107968;28;20492;-58
2022/05/04 08:12:06;;;;;;;2.70;1.75;;;22.60;56.00;;;;;;5109463;28;20036;-59
2022/05/04 08:14:33;;;;;;;2.22;1.70;;;22.60;56.60;;;;;;5105841;28;20048;-49
2022/05/04 08:16:59;;;;;;;2.50;1.83;;;22.60;56.10;;;;;;5117525;28;20045;-48
2022/05/04 08:19:25;;;;;;;3.33;1.70;;;22.60;56.10;;;;;;5108336;28;20036;-47
2022/05/04 08:21:52;;;;;;;3.15;2.00;;;22.60;56.10;;;;;;5105114;28;20092;-46
2022/05/04 08:24:18;;;;;;;2.42;1.80;;;22.60;56.10;;;;;;5109322;28;20032;-48
2022/05/04 08:26:44;;;;;;;2.70;1.90;;;22.60;56.10;;;;;;5106921;28;20118;-50
2022/05/04 08:29:11;;;;;;;2.40;1.80;;;22.60;56.20;;;;;;5088248;28;20464;-51
2022/05/04 08:31:38;;;;;;;2.30;1.88;;;22.60;56.20;;;;;;5103383;28;20048;-51
2022/05/04 08:34:04;;;;;;;;;;;22.60;56.20;;;;;;5106739;28;20035;-55
2022/05/04 08:36:30;;;;;;;3.28;1.83;;;22.60;56.20;;;;;;5107939;28;20387;-57
2022/05/04 08:38:56;;;;;;;2.40;1.88;;;22.60;56.20;;;;;;5106855;28;20035;-57
2022/05/04 08:41:22;;;;;;;2.60;1.70;;;22.60;56.30;;;;;;5108090;28;20020;-58
2022/05/04 08:43:50;;;;;;;3.30;1.73;;;22.60;56.30;;;;;;5111458;28;20024;-56
2022/05/04 08:46:16;;;;;;;2.33;1.67;;;22.60;56.30;;;;;;5112775;28;20054;-57
2022/05/04 08:48:43;;;;;;;3.05;1.80;;;22.60;56.30;;;;;;5102983;28;20034;-57
2022/05/04 08:51:10;;;;;;;3.17;1.80;;;22.60;56.30;;;;;;5082134;28;20040;-58
2022/05/04 08:53:36;;;;;;;;;;;22.60;56.40;;;;;;5084020;28;20031;-59
2022/05/04 08:56:03;;;;;;;4.25;1.80;;;22.60;56.40;;;;;;5102043;28;19912;-58
2022/05/04 08:58:30;;;;;;;2.85;1.90;;;22.60;56.40;;;;;;5104927;28;20764;-58
2022/05/04 09:00:57;;;;;;;;;;;22.60;56.40;;;;;;5100617;28;20082;-59
2022/05/04 09:03:23;;;;;;;1.83;1.58;;;22.60;56.40;;;;;;5109417;28;19949;-58
2022/05/04 09:05:53;;;;;;;2.55;1.80;;;22.60;56.50;;;;;;5105382;28;20054;-57
2022/05/04 09:08:19;;;;;;;2.97;1.92;;;22.60;56.40;;;;;;5094094;28;20062;-57
2022/05/04 09:10:46;;;;;;;2.38;1.77;;;22.60;56.40;;;;;;5092958;28;20067;-61
2022/05/04 09:13:12;;;;;;;3.90;1.70;;;22.60;56.50;;;;;;5107131;28;20118;-58
2022/05/04 09:15:40;;;;;;;2.40;1.90;;;22.50;56.50;;;;;;5104816;28;20028;-58
2022/05/04 09:18:13;;;;;;;2.63;1.65;;;22.50;56.50;;;;;;5088739;28;20485;-58
2022/05/04 09:20:57;;;;;;;4.25;1.80;;;22.60;56.50;;;;;;5103275;28;20032;-59
2022/05/04 09:23:25;;;;;;;2.75;1.80;;;22.60;56.50;;;;;;5104532;28;20027;-58
2022/05/04 09:25:59;;;;;;;2.97;1.90;;;22.50;56.50;;;;;;5100999;28;20039;-57
2022/05/04 09:28:26;;;;;;;2.72;1.80;;;22.50;56.50;;;;;;5109889;28;20666;-57
2022/05/04 09:30:57;;;;;;;3.08;1.90;;;22.50;56.50;;;;;;5104827;28;20047;-58
2022/05/04 09:33:26;;;;;;;2.55;1.83;;;22.50;56.50;;;;;;5104592;28;20033;-57
2022/05/04 09:35:52;;;;;;;2.58;1.80;;;22.50;56.50;;;;;;5105532;28;20031;-58
2022/05/04 09:46:42;;;;;;;3.30;1.90;;;22.50;56.60;;;;;;5105508;28;20034;-57
2022/05/04 09:49:33;;;;;;;2.53;1.90;;;22.50;56.60;;;;;;5099487;28;20028;-58
2022/05/04 09:52:02;;;;;;;3.10;2.05;;;22.50;56.60;;;;;;5098059;28;20044;-58
2022/05/04 09:54:28;;;;;;;1.80;1.60;;;22.50;56.60;;;;;;5100604;28;20532;-56
2022/05/04 09:56:59;;;;;;;2.28;1.73;;;22.50;56.60;;;;;;5104278;28;20028;-58
2022/05/04 09:59:29;;;;;;;2.75;1.95;;;22.50;56.60;;;;;;5103685;28;20048;-57
2022/05/04 10:01:55;;;;;;;2.30;1.73;;;22.50;56.60;;;;;;5086103;28;20086;-58
2022/05/04 10:04:23;;;;;;;3.33;1.73;;;22.50;57.10;;;;;;5100901;28;20032;-57
2022/05/04 10:06:50;;;;;;;2.40;1.80;;;22.50;56.70;;;;;;5099224;28;20448;-58
2022/05/04 10:09:16;;;;;;;2.92;1.70;;;22.50;56.70;;;;;;5102957;28;20032;-57
2022/05/04 10:11:42;;;;;;;2.78;1.90;;;22.50;56.70;;;;;;5102995;28;20041;-56
2022/05/04 10:14:15;;;;;;;2.40;1.75;;;22.50;56.70;;;;;;5093877;28;20047;-58
2022/05/04 10:17:11;;;;;;;2.67;2.00;;;22.50;56.70;;;;;;5105789;28;20044;-54
2022/05/04 10:19:46;;;;;;;2.05;1.73;;;22.50;56.70;;;;;;5089764;28;20135;-55
2022/05/04 10:22:15;;;;;;;1.83;1.58;;;22.50;56.70;;;;;;5085925;28;20064;-60
2022/05/04 10:24:41;;;;;;;9.82;1.83;;;22.50;56.60;;;;;;5086746;28;20021;-60
2022/05/04 10:27:18;;;;;;;7.35;2.30;;;22.50;56.60;;;;;;5073091;28;20031;-61
2022/05/04 10:32:44;;;;;;;4.57;2.40;;;22.50;56.70;;;;;;5099287;28;20057;-65
2022/05/04 10:35:13;;;;;;;;;;;22.50;56.70;;;;;;5098027;28;20036;-60
2022/05/04 10:37:54;;;;;;;;;;;22.50;56.60;;;;;;5095964;28;19908;-63
2022/05/04 10:40:27;;;;;;;3.60;2.08;;;22.50;56.50;;;;;;5100659;28;19919;-61
2022/05/04 10:43:02;;;;;;;4.55;2.17;;;22.50;56.40;;;;;;5102496;28;20031;-64
2022/05/04 10:45:34;;;;;;;10.43;2.47;;;22.50;56.30;;;;;;5098039;28;20023;-66
2022/05/04 10:48:18;;;;;;;8.05;2.30;;;22.50;56.60;;;;;;5098151;28;20142;-65
2022/05/04 10:50:48;;;;;;;8.15;2.70;;;22.50;56.30;;;;;;5095990;28;20043;-63
2022/05/04 10:53:21;;;;;;;5.63;2.63;;;22.50;56.30;;;;;;5096225;28;20035;-64
2022/05/04 10:56:03;;;;;;;7.05;3.22;;;22.50;56.20;;;;;;5095223;28;20058;-64
2022/05/04 10:58:45;;;;;;;6.50;2.67;;;22.50;56.40;;;;;;5100292;28;20090;-59
2022/05/04 11:01:33;;;;;;;5.93;2.92;;;22.50;56.60;;;;;;5020600;28;20037;-58
2022/05/04 11:04:13;;;;;;;5.22;2.60;;;22.50;56.60;;;;;;5023496;28;20036;-58
2022/05/04 11:06:40;;;;;;;7.05;2.92;;;22.50;56.60;;;;;;5034258;28;20556;-58
2022/05/04 11:09:21;;;;;;;5.50;2.88;;;22.50;56.60;;;;;;5027666;28;20033;-58
2022/05/04 11:11:48;;;;;;;7.38;2.58;;;22.50;56.60;;;;;;5028360;28;20057;-58
2022/05/04 11:14:16;;;;;;;8.27;2.70;;;22.50;56.50;;;;;;5029708;28;20033;-57
2022/05/04 11:16:43;;;;;;;5.00;2.83;;;22.50;56.50;;;;;;5027709;28;20169;-58
2022/05/04 11:19:11;;;;;;;4.18;2.78;;;22.50;57.00;;;;;;5024865;28;20038;-58
2022/05/04 11:21:37;;;;;;;6.57;2.90;;;22.50;56.40;;;;;;5028623;28;20038;-57
2022/05/04 11:24:05;;;;;;;3.05;2.70;;;22.50;56.30;;;;;;5021874;28;20097;-58
2022/05/04 11:26:50;;;;;;;4.50;2.72;;;22.50;56.30;;;;;;5026603;28;20652;-59
2022/05/04 11:29:22;;;;;;;3.22;2.60;;;22.50;56.30;;;;;;5025352;28;20086;-58
2022/05/04 11:31:58;;;;;;;6.80;2.67;;;22.50;56.20;;;;;;5023290;28;20046;-58
2022/05/04 11:34:28;;;;;;;4.35;2.50;;;22.50;56.20;;;;;;5029768;28;20036;-58
2022/05/04 11:36:56;;;;;;;4.43;2.42;;;22.50;56.20;;;;;;5029546;28;20025;-57
2022/05/04 11:39:26;;;;;;;4.60;2.60;;;22.50;56.10;;;;;;5094538;28;20067;-55
2022/05/04 11:41:55;;;;;;;4.38;2.53;;;22.50;56.20;;;;;;5104513;28;20051;-58
2022/05/04 11:44:22;;;;;;;3.85;2.35;;;22.50;56.10;;;;;;5104320;28;20032;-57
2022/05/04 11:46:53;;;;;;;4.50;3.17;;;22.50;56.10;;;;;;5108625;28;20026;-58
2022/05/04 11:49:20;;;;;;;4.55;2.70;;;22.50;56.10;;;;;;5102424;28;20769;-58
2022/05/04 11:51:46;;;;;;;4.25;3.00;;;22.50;56.10;;;;;;5100722;28;20043;-57
2022/05/04 11:54:12;;;;;;;4.13;2.88;;;22.40;56.00;;;;;;5112277;28;20020;-58
2022/05/04 11:56:38;;;;;;;3.85;2.67;;;22.40;56.00;;;;;;5105977;28;20035;-55
2022/05/04 11:59:07;;;;;;;3.17;2.72;;;22.40;56.00;;;;;;5108979;28;20028;-58
2022/05/04 12:01:34;;;;;;;4.55;3.00;;;22.40;56.00;;;;;;5113363;28;20035;-58
2022/05/04 12:04:00;;;;;;;4.10;3.05;;;22.40;55.90;;;;;;5112164;28;20083;-58
2022/05/04 12:06:27;;;;;;;4.33;3.00;;;22.40;56.00;;;;;;5090403;28;20118;-58
2022/05/04 12:08:54;;;;;;;6.35;3.00;;;22.40;55.90;;;;;;5086795;28;20288;-58
2022/05/04 12:11:20;;;;;;;3.80;2.63;;;22.40;55.80;;;;;;5104548;28;20036;-58
2022/05/04 12:13:46;;;;;;;3.63;2.70;;;22.40;55.90;;;;;;5095859;28;20043;-57
2022/05/04 12:16:13;;;;;;;4.28;2.55;;;22.40;55.90;;;;;;5094431;28;20053;-58
2022/05/04 12:18:39;;;;;;;4.37;2.80;;;22.40;55.90;;;;;;5110711;28;20027;-58
2022/05/04 12:21:12;;;;;;;3.17;2.55;;;22.40;55.80;;;;;;5107925;28;20028;-58
2022/05/04 12:23:43;;;;;;;5.45;3.03;;;22.40;55.80;;;;;;5092922;28;20024;-59
2022/05/04 12:26:10;;;;;;;2.92;2.63;;;22.40;55.80;;;;;;5106321;28;20034;-59
2022/05/04 12:28:37;;;;;;;6.55;2.83;;;22.30;55.70;;;;;;5112717;28;20031;-60
2022/05/04 12:33:50;;;;;;;3.50;2.70;;;22.30;55.70;;;;;;5113234;28;20023;-60
2022/05/04 12:36:18;;;;;;;4.13;2.78;;;22.30;55.70;;;;;;5105131;28;20118;-59
2022/05/04 12:38:48;;;;;;;3.42;2.88;;;22.30;55.60;;;;;;5111368;28;20024;-59
2022/05/04 12:41:18;;;;;;;4.32;2.83;;;22.30;55.60;;;;;;5110285;28;20153;-59
2022/05/04 12:43:45;;;;;;;3.33;2.75;;;22.30;55.60;;;;;;5108472;28;20031;-59
2022/05/04 12:46:12;;;;;;;4.35;2.85;;;22.30;55.60;;;;;;5104873;28;20098;-58
2022/05/04 12:48:46;;;;;;;4.10;2.60;;;22.30;55.60;;;;;;5107764;28;20028;-59
2022/05/04 12:51:14;;;;;;;5.60;2.63;;;22.30;55.60;;;;;;5105481;28;20465;-58
2022/05/04 12:53:40;;;;;;;6.32;2.90;;;22.30;55.60;;;;;;5106554;28;20024;-60
2022/05/04 12:58:52;;;;;;;3.22;2.78;;;22.30;55.50;;;;;;5106099;28;20039;-58
2022/05/04 13:01:24;;;;;;;5.72;2.80;;;22.30;55.60;;;;;;5107776;28;20035;-58
2022/05/04 13:03:51;;;;;;;3.80;2.75;;;22.30;55.50;;;;;;5096441;28;20023;-58
2022/05/04 13:06:20;;;;;;;3.58;2.60;;;22.20;55.50;;;;;;5104974;28;20070;-58
2022/05/04 13:08:48;;;;;;;4.25;2.72;;;22.20;55.60;;;;;;5111782;28;20032;-58
2022/05/04 13:11:18;;;;;;;3.85;2.47;;;22.20;55.60;;;;;;5110093;28;20055;-58
2022/05/04 13:13:44;;;;;;;2.63;2.38;;;22.20;55.60;;;;;;5107215;28;20532;-58
2022/05/04 13:16:10;;;;;;;2.97;2.60;;;22.20;55.60;;;;;;5107864;28;20054;-58
2022/05/04 13:18:37;;;;;;;2.95;2.50;;;22.20;55.60;;;;;;5110561;28;20084;-59
2022/05/04 13:21:04;;;;;;;2.72;2.30;;;22.20;55.60;;;;;;5106560;28;20027;-57
2022/05/04 13:23:30;;;;;;;3.80;2.75;;;22.20;55.60;;;;;;5106438;28;20024;-59
2022/05/04 13:25:57;;;;;;;3.50;2.80;;;22.20;55.70;;;;;;5107536;28;20032;-59
2022/05/04 13:28:23;;;;;;;3.00;2.47;;;22.20;55.70;;;;;;5107051;28;20101;-58